createdAt,value
2023-04-16T00:03:00.445Z,60.03
2023-04-16T00:08:02.733Z,59.87
2023-04-16T00:13:04.586Z,59.86
2023-04-16T00:18:06.413Z,59.98
2023-04-16T00:23:08.216Z,59.81
2023-04-16T00:28:11.093Z,59.91
2023-04-16T00:33:13.005Z,59.36
2023-04-16T00:38:14.923Z,60.19
2023-04-16T00:43:24.925Z,59.77
2023-04-16T00:48:28.347Z,59.85
2023-04-16T00:53:30.845Z,59.64
2023-04-16T00:58:35.655Z,60.00
2023-04-16T01:03:39.853Z,60.62
2023-04-16T01:08:41.836Z,60.23
2023-04-16T01:13:43.726Z,60.21
2023-04-16T01:18:46.157Z,60.56
2023-04-16T01:23:48.116Z,60.44
2023-04-16T01:28:49.910Z,60.50
2023-04-16T01:33:51.815Z,60.70
2023-04-16T01:38:53.821Z,60.72
2023-04-16T01:43:55.852Z,60.60
2023-04-16T01:48:59.504Z,60.38
2023-04-16T01:54:01.338Z,60.72
2023-04-16T01:59:03.386Z,60.87
2023-04-16T02:04:12.119Z,61.50
2023-04-16T02:09:14.312Z,61.68
2023-04-16T02:14:16.170Z,61.43
2023-04-16T02:19:18.290Z,61.50
2023-04-16T02:24:21.786Z,61.51
2023-04-16T02:29:24.339Z,61.43
2023-04-16T02:34:33.737Z,61.35
2023-04-16T02:39:35.639Z,61.17
2023-04-16T02:44:37.453Z,61.73
2023-04-16T02:49:39.489Z,61.21
2023-04-16T02:54:41.282Z,61.58
2023-04-16T02:59:43.212Z,61.70
2023-04-16T03:04:45.076Z,61.69
2023-04-16T03:09:46.941Z,61.51
2023-04-16T03:14:51.680Z,60.83
2023-04-16T03:19:53.621Z,60.61
2023-04-16T03:24:55.434Z,59.88
2023-04-16T03:29:57.307Z,59.66
2023-04-16T03:35:00.072Z,60.05
2023-04-16T03:40:02.585Z,59.64
2023-04-16T03:45:06.800Z,59.91
2023-04-16T03:50:09.299Z,59.40
2023-04-16T03:55:11.476Z,59.44
2023-04-16T04:00:14.260Z,59.78
2023-04-16T04:05:43.072Z,59.77
2023-04-16T04:10:48.008Z,59.54
2023-04-16T04:15:51.004Z,59.96
2023-04-16T04:20:52.941Z,60.20
2023-04-16T04:25:58.455Z,59.88
2023-04-16T04:31:02.117Z,60.31
2023-04-16T04:36:06.208Z,60.12
2023-04-16T04:41:09.341Z,59.96
2023-04-16T04:46:13.212Z,59.97
2023-04-16T04:51:16.100Z,59.68
2023-04-16T04:56:20.881Z,59.21
2023-04-16T05:01:23.488Z,59.59
2023-04-16T05:06:26.362Z,59.34
2023-04-16T05:11:29.853Z,59.54
2023-04-16T05:16:31.653Z,59.72
2023-04-16T05:21:34.112Z,59.36
2023-04-16T05:26:35.979Z,59.48
2023-04-16T05:31:37.854Z,59.25
2023-04-16T05:36:39.643Z,59.49
2023-04-16T05:41:41.407Z,59.86
2023-04-16T05:46:43.230Z,59.86
2023-04-16T05:51:45.036Z,59.91
2023-04-16T05:56:46.797Z,59.75
2023-04-16T06:01:48.720Z,59.93
2023-04-16T06:06:50.783Z,59.52
2023-04-16T06:11:52.661Z,59.79
2023-04-16T06:16:54.455Z,59.84
2023-04-16T06:21:57.138Z,60.13
2023-04-16T06:26:58.907Z,60.41
2023-04-16T06:32:00.866Z,60.27
2023-04-16T06:37:02.657Z,60.45
2023-04-16T06:42:04.856Z,60.04
2023-04-16T06:47:06.683Z,59.99
2023-04-16T06:52:08.577Z,59.56
2023-04-16T06:57:11.314Z,59.63
2023-04-16T07:02:13.328Z,59.41
2023-04-16T07:07:15.281Z,59.25
2023-04-16T07:12:17.104Z,59.24
2023-04-16T07:17:19.056Z,59.28
2023-04-16T07:22:21.141Z,58.90
2023-04-16T07:27:22.914Z,58.51
2023-04-16T07:32:24.909Z,58.21
2023-04-16T07:37:26.829Z,58.01
2023-04-16T07:42:28.760Z,57.68
2023-04-16T07:47:30.557Z,57.38
2023-04-16T07:52:32.497Z,57.25
2023-04-16T07:57:34.431Z,57.08
2023-04-16T08:02:36.442Z,57.12
2023-04-16T08:07:38.308Z,56.67
2023-04-16T08:12:40.217Z,56.52
2023-04-16T08:17:42.081Z,56.68
2023-04-16T08:22:44.798Z,56.25
2023-04-16T08:27:46.591Z,55.89
2023-04-16T08:32:50.156Z,55.41
2023-04-16T08:37:52.294Z,55.35
2023-04-16T08:42:56.345Z,54.68
2023-04-16T08:47:58.524Z,54.64
2023-04-16T08:53:05.596Z,54.35
2023-04-16T08:58:16.442Z,54.14
2023-04-16T09:03:20.415Z,53.84
2023-04-16T09:08:22.515Z,53.66
2023-04-16T09:13:25.319Z,53.63
2023-04-16T09:18:28.514Z,53.36
2023-04-16T09:23:30.662Z,53.26
2023-04-16T09:28:43.414Z,53.18
2023-04-16T09:34:02.203Z,52.95
2023-04-16T09:39:04.376Z,52.74
2023-04-16T09:44:06.267Z,52.43
2023-04-16T09:49:16.202Z,52.42
2023-04-16T09:54:20.404Z,52.24
2023-04-16T09:59:24.052Z,52.10
2023-04-16T10:04:26.026Z,52.17
2023-04-16T10:09:32.293Z,51.84
2023-04-16T10:14:35.249Z,51.88
2023-04-16T10:19:37.500Z,51.46
2023-04-16T10:24:41.251Z,51.56
2023-04-16T10:29:44.150Z,51.76
2023-04-16T10:34:47.037Z,51.23
2023-04-16T10:39:49.802Z,51.21
2023-04-16T10:44:51.651Z,51.40
2023-04-16T10:49:53.458Z,51.23
2023-04-16T10:54:55.788Z,50.93
2023-04-16T10:59:59.417Z,50.43
2023-04-16T11:05:02.021Z,50.60
2023-04-16T11:10:05.824Z,50.41
2023-04-16T11:15:14.171Z,49.95
2023-04-16T11:20:34.039Z,49.79
2023-04-16T11:25:35.831Z,49.83
2023-04-16T11:30:39.418Z,49.54
2023-04-16T11:35:41.585Z,49.76
2023-04-16T11:40:43.523Z,49.46
2023-04-16T11:46:27.007Z,49.46
2023-04-16T11:51:30.107Z,48.95
2023-04-16T11:56:35.841Z,49.02
2023-04-16T12:01:39.407Z,48.82
2023-04-16T12:06:41.732Z,48.67
2023-04-16T12:11:43.769Z,48.29
2023-04-16T12:16:45.689Z,47.76
2023-04-16T12:21:49.520Z,47.73
2023-04-16T12:27:03.252Z,47.53
2023-04-16T12:32:05.246Z,47.22
2023-04-16T12:37:11.105Z,46.68
2023-04-16T12:42:12.915Z,46.64
2023-04-16T12:47:14.786Z,45.84
2023-04-16T12:52:16.537Z,45.25
2023-04-16T12:57:18.462Z,45.35
2023-04-16T13:02:20.508Z,45.26
2023-04-16T13:07:22.568Z,44.82
2023-04-16T13:12:24.377Z,45.06
2023-04-16T13:17:26.306Z,44.51
2023-04-16T13:22:28.579Z,43.93
2023-04-16T13:27:32.166Z,44.26
2023-04-16T13:32:34.125Z,44.33
2023-04-16T13:37:35.947Z,44.01
2023-04-16T13:42:37.806Z,43.98
2023-04-16T13:47:43.651Z,44.36
2023-04-16T13:52:45.544Z,44.38
2023-04-16T13:57:47.825Z,44.64
2023-04-16T14:02:50.050Z,44.66
2023-04-16T14:07:52.123Z,44.58
2023-04-16T14:12:54.204Z,44.66
2023-04-16T14:17:56.535Z,44.73
2023-04-16T14:22:58.758Z,45.21
2023-04-16T14:28:01.204Z,45.29
2023-04-16T14:33:05.894Z,45.74
2023-04-16T14:38:07.838Z,45.99
2023-04-16T14:43:09.633Z,46.39
2023-04-16T14:48:11.549Z,46.67
2023-04-16T14:53:13.753Z,46.96
2023-04-16T14:58:15.713Z,46.85
2023-04-16T15:03:17.839Z,47.12
2023-04-16T15:08:19.774Z,47.34
2023-04-16T15:13:21.572Z,47.43
2023-04-16T15:18:23.380Z,48.02
2023-04-16T15:23:25.256Z,48.00
2023-04-16T15:28:27.205Z,48.11
2023-04-16T15:33:29.109Z,48.53
2023-04-16T15:38:31.123Z,48.67
2023-04-16T15:43:32.907Z,48.55
2023-04-16T15:48:34.813Z,48.69
2023-04-16T15:53:36.624Z,48.67
2023-04-16T15:58:38.430Z,48.85
2023-04-16T16:03:40.491Z,49.04
2023-04-16T16:08:42.643Z,49.01
2023-04-16T16:13:44.419Z,49.44
2023-04-16T16:18:46.250Z,49.47
2023-04-16T16:23:48.047Z,49.63
2023-04-16T16:28:49.894Z,49.74
2023-04-16T16:33:51.780Z,50.02
2023-04-16T16:38:55.212Z,50.18
2023-04-16T16:43:59.230Z,50.31
2023-04-16T16:49:01.408Z,50.87
2023-04-16T16:54:03.671Z,51.16
2023-04-16T16:59:06.279Z,50.96
2023-04-16T17:04:08.482Z,51.06
2023-04-16T17:09:11.556Z,51.45
2023-04-16T17:14:14.034Z,51.83
2023-04-16T17:19:17.525Z,51.60
2023-04-16T17:24:20.068Z,51.61
2023-04-16T17:29:25.980Z,51.75
2023-04-16T17:34:28.337Z,52.01
2023-04-16T17:39:30.137Z,52.21
2023-04-16T17:44:31.946Z,52.29
2023-04-16T17:49:33.853Z,52.70
2023-04-16T17:54:36.185Z,53.08
2023-04-16T17:59:38.203Z,53.11
2023-04-16T18:04:40.223Z,53.10
2023-04-16T18:09:42.197Z,53.51
2023-04-16T18:14:45.038Z,53.60
2023-04-16T18:19:46.941Z,53.86
2023-04-16T18:24:48.740Z,53.63
2023-04-16T18:29:51.395Z,54.03
2023-04-16T18:34:53.805Z,53.96
2023-04-16T18:39:57.923Z,54.47
2023-04-16T18:45:00.112Z,54.18
2023-04-16T18:50:02.122Z,54.68
2023-04-16T18:55:04.135Z,55.11
2023-04-16T19:00:12.806Z,55.08
2023-04-16T19:05:14.661Z,55.27
2023-04-16T19:10:16.727Z,55.38
2023-04-16T19:15:18.830Z,55.35
2023-04-16T19:20:21.328Z,55.36
2023-04-16T19:25:23.107Z,55.63
2023-04-16T19:30:25.582Z,55.87
2023-04-16T19:35:28.190Z,55.75
2023-04-16T19:40:29.969Z,56.11
2023-04-16T19:45:31.967Z,56.23
2023-04-16T19:50:33.776Z,56.42
2023-04-16T19:55:35.703Z,56.34
2023-04-16T20:00:40.767Z,56.34
2023-04-16T20:05:42.723Z,56.19
2023-04-16T20:10:44.554Z,56.35
2023-04-16T20:15:47.303Z,56.27
2023-04-16T20:20:50.810Z,56.68
2023-04-16T20:25:52.658Z,56.49
2023-04-16T20:30:54.677Z,56.40
2023-04-16T20:35:56.632Z,56.69
2023-04-16T20:41:11.170Z,56.75
2023-04-16T20:46:12.959Z,56.37
2023-04-16T20:51:14.806Z,56.49
2023-04-16T20:56:17.032Z,56.54
2023-04-16T21:01:20.729Z,56.51
2023-04-16T21:06:22.651Z,56.51
2023-04-16T21:11:24.555Z,56.42
2023-04-16T21:16:26.362Z,56.56
2023-04-16T21:21:28.405Z,57.14
2023-04-16T21:26:30.370Z,57.06
2023-04-16T21:31:32.216Z,57.13
2023-04-16T21:36:34.243Z,56.78
2023-04-16T21:41:36.156Z,57.12
2023-04-16T21:46:37.988Z,56.81
2023-04-16T21:51:40.732Z,57.00
2023-04-16T21:56:42.628Z,57.00
2023-04-16T22:01:44.421Z,57.20
2023-04-16T22:06:46.346Z,57.35
2023-04-16T22:11:48.115Z,57.46
2023-04-16T22:16:51.809Z,57.43
2023-04-16T22:21:54.099Z,57.53
2023-04-16T22:26:57.057Z,57.46
2023-04-16T22:32:00.789Z,57.51
2023-04-16T22:37:03.174Z,57.98
2023-04-16T22:42:05.204Z,57.74
2023-04-16T22:47:06.987Z,57.64
2023-04-16T22:52:08.922Z,57.92
2023-04-16T22:57:10.795Z,57.74
2023-04-16T23:02:12.574Z,58.04
2023-04-16T23:07:15.652Z,57.77
2023-04-16T23:12:17.717Z,57.82
2023-04-16T23:17:19.493Z,58.16
2023-04-16T23:22:21.297Z,57.91
2023-04-16T23:27:23.109Z,58.14
2023-04-16T23:32:25.001Z,57.97
2023-04-16T23:37:26.965Z,58.06
2023-04-16T23:42:28.725Z,58.33
2023-04-16T23:47:30.572Z,58.25
2023-04-16T23:52:32.372Z,58.35
2023-04-16T23:57:34.153Z,58.22
